sensor_id;sensor_type;location;lat;lon;timestamp;P1;durP1;ratioP1;P2;durP2;ratioP2
49416;SDS011;35290;39.550;8.786;2023-08-21T00:02:21;15.60;;;5.82;;
49416;SDS011;35290;39.550;8.786;2023-08-21T00:04:47;9.57;;;5.10;;
49416;SDS011;35290;39.550;8.786;2023-08-21T00:07:12;11.77;;;5.47;;
49416;SDS011;35290;39.550;8.786;2023-08-21T00:09:37;13.77;;;5.32;;
49416;SDS011;35290;39.550;8.786;2023-08-21T00:12:03;9.90;;;4.93;;
49416;SDS011;35290;39.550;8.786;2023-08-21T00:14:28;9.80;;;4.93;;
49416;SDS011;35290;39.550;8.786;2023-08-21T00:16:53;9.32;;;5.18;;
49416;SDS011;35290;39.550;8.786;2023-08-21T00:19:19;9.57;;;5.18;;
49416;SDS011;35290;39.550;8.786;2023-08-21T00:21:44;10.75;;;4.95;;
49416;SDS011;35290;39.550;8.786;2023-08-21T00:24:10;11.25;;;5.20;;
49416;SDS011;35290;39.550;8.786;2023-08-21T00:26:35;10.15;;;5.18;;
49416;SDS011;35290;39.550;8.786;2023-08-21T00:29:00;13.43;;;5.47;;
49416;SDS011;35290;39.550;8.786;2023-08-21T00:31:25;11.32;;;5.10;;
49416;SDS011;35290;39.550;8.786;2023-08-21T00:33:51;10.85;;;5.03;;
49416;SDS011;35290;39.550;8.786;2023-08-21T00:36:16;8.88;;;4.72;;
49416;SDS011;35290;39.550;8.786;2023-08-21T00:38:42;6.63;;;4.07;;
49416;SDS011;35290;39.550;8.786;2023-08-21T00:41:08;7.60;;;4.90;;
49416;SDS011;35290;39.550;8.786;2023-08-21T00:43:33;8.73;;;4.38;;
49416;SDS011;35290;39.550;8.786;2023-08-21T00:45:59;9.07;;;4.32;;
49416;SDS011;35290;39.550;8.786;2023-08-21T00:48:24;9.38;;;4.22;;
49416;SDS011;35290;39.550;8.786;2023-08-21T00:50:49;7.47;;;4.38;;
49416;SDS011;35290;39.550;8.786;2023-08-21T00:53:15;9.10;;;4.03;;
49416;SDS011;35290;39.550;8.786;2023-08-21T00:55:40;8.13;;;4.07;;
49416;SDS011;35290;39.550;8.786;2023-08-21T00:58:06;5.95;;;4.10;;
49416;SDS011;35290;39.550;8.786;2023-08-21T01:00:33;6.63;;;4.50;;
49416;SDS011;35290;39.550;8.786;2023-08-21T01:02:59;9.05;;;4.93;;
49416;SDS011;35290;39.550;8.786;2023-08-21T01:05:24;8.73;;;4.35;;
49416;SDS011;35290;39.550;8.786;2023-08-21T01:07:51;6.28;;;4.38;;
49416;SDS011;35290;39.550;8.786;2023-08-21T01:10:33;7.53;;;4.40;;
49416;SDS011;35290;39.550;8.786;2023-08-21T01:13:23;11.48;;;4.70;;
49416;SDS011;35290;39.550;8.786;2023-08-21T01:15:45;12.70;;;5.00;;
49416;SDS011;35290;39.550;8.786;2023-08-21T01:18:11;8.77;;;4.50;;
49416;SDS011;35290;39.550;8.786;2023-08-21T01:20:36;8.55;;;4.85;;
49416;SDS011;35290;39.550;8.786;2023-08-21T01:23:05;10.07;;;4.90;;
49416;SDS011;35290;39.550;8.786;2023-08-21T01:25:33;7.65;;;4.53;;
49416;SDS011;35290;39.550;8.786;2023-08-21T01:27:58;13.02;;;4.95;;
49416;SDS011;35290;39.550;8.786;2023-08-21T01:30:24;11.43;;;4.80;;
49416;SDS011;35290;39.550;8.786;2023-08-21T01:35:15;8.40;;;5.15;;
49416;SDS011;35290;39.550;8.786;2023-08-21T01:37:41;11.52;;;5.13;;
49416;SDS011;35290;39.550;8.786;2023-08-21T01:40:07;10.93;;;5.05;;
49416;SDS011;35290;39.550;8.786;2023-08-21T01:42:32;11.23;;;5.05;;
49416;SDS011;35290;39.550;8.786;2023-08-21T01:44:58;10.43;;;4.70;;
49416;SDS011;35290;39.550;8.786;2023-08-21T01:47:23;11.65;;;5.25;;
49416;SDS011;35290;39.550;8.786;2023-08-21T01:49:48;11.10;;;6.05;;
49416;SDS011;35290;39.550;8.786;2023-08-21T01:52:17;7.97;;;5.20;;
49416;SDS011;35290;39.550;8.786;2023-08-21T01:54:42;12.38;;;5.50;;
49416;SDS011;35290;39.550;8.786;2023-08-21T01:57:08;8.35;;;5.35;;
49416;SDS011;35290;39.550;8.786;2023-08-21T01:59:33;10.48;;;5.13;;
49416;SDS011;35290;39.550;8.786;2023-08-21T02:01:58;13.23;;;5.32;;
49416;SDS011;35290;39.550;8.786;2023-08-21T02:04:24;8.65;;;5.05;;
49416;SDS011;35290;39.550;8.786;2023-08-21T02:06:49;7.60;;;5.05;;
49416;SDS011;35290;39.550;8.786;2023-08-21T02:09:14;12.15;;;5.82;;
49416;SDS011;35290;39.550;8.786;2023-08-21T02:11:39;12.05;;;5.55;;
49416;SDS011;35290;39.550;8.786;2023-08-21T02:14:05;12.27;;;5.07;;
49416;SDS011;35290;39.550;8.786;2023-08-21T02:16:30;13.85;;;4.97;;
49416;SDS011;35290;39.550;8.786;2023-08-21T02:18:55;10.90;;;5.78;;
49416;SDS011;35290;39.550;8.786;2023-08-21T02:21:21;9.80;;;4.75;;
49416;SDS011;35290;39.550;8.786;2023-08-21T02:23:47;8.85;;;4.95;;
49416;SDS011;35290;39.550;8.786;2023-08-21T02:26:12;12.63;;;5.15;;
49416;SDS011;35290;39.550;8.786;2023-08-21T02:28:39;11.65;;;5.32;;
49416;SDS011;35290;39.550;8.786;2023-08-21T02:31:04;9.32;;;5.50;;
49416;SDS011;35290;39.550;8.786;2023-08-21T02:33:30;8.13;;;4.97;;
49416;SDS011;35290;39.550;8.786;2023-08-21T02:35:55;8.68;;;5.10;;
49416;SDS011;35290;39.550;8.786;2023-08-21T02:38:21;11.90;;;4.97;;
49416;SDS011;35290;39.550;8.786;2023-08-21T02:40:46;11.85;;;5.07;;
49416;SDS011;35290;39.550;8.786;2023-08-21T02:43:12;11.95;;;5.65;;
49416;SDS011;35290;39.550;8.786;2023-08-21T02:45:38;15.85;;;5.53;;
49416;SDS011;35290;39.550;8.786;2023-08-21T02:48:03;10.75;;;4.95;;
49416;SDS011;35290;39.550;8.786;2023-08-21T02:50:28;10.15;;;5.55;;
49416;SDS011;35290;39.550;8.786;2023-08-21T02:52:54;7.45;;;4.72;;
49416;SDS011;35290;39.550;8.786;2023-08-21T02:55:19;9.48;;;4.68;;
49416;SDS011;35290;39.550;8.786;2023-08-21T02:57:45;8.15;;;4.78;;
49416;SDS011;35290;39.550;8.786;2023-08-21T03:00:11;12.32;;;5.07;;
49416;SDS011;35290;39.550;8.786;2023-08-21T03:02:37;7.82;;;5.30;;
49416;SDS011;35290;39.550;8.786;2023-08-21T03:05:03;12.75;;;5.07;;
49416;SDS011;35290;39.550;8.786;2023-08-21T03:07:28;10.57;;;4.95;;
49416;SDS011;35290;39.550;8.786;2023-08-21T03:09:53;10.23;;;4.38;;
49416;SDS011;35290;39.550;8.786;2023-08-21T03:12:19;8.50;;;4.95;;
49416;SDS011;35290;39.550;8.786;2023-08-21T03:14:45;11.60;;;5.07;;
49416;SDS011;35290;39.550;8.786;2023-08-21T03:17:10;9.57;;;4.50;;
49416;SDS011;35290;39.550;8.786;2023-08-21T03:19:36;8.48;;;4.70;;
49416;SDS011;35290;39.550;8.786;2023-08-21T03:22:01;10.95;;;4.88;;
49416;SDS011;35290;39.550;8.786;2023-08-21T03:24:26;10.15;;;5.10;;
49416;SDS011;35290;39.550;8.786;2023-08-21T03:26:51;8.67;;;4.53;;
49416;SDS011;35290;39.550;8.786;2023-08-21T03:29:17;9.75;;;4.95;;
49416;SDS011;35290;39.550;8.786;2023-08-21T03:31:42;10.60;;;5.30;;
49416;SDS011;35290;39.550;8.786;2023-08-21T03:34:07;10.80;;;5.80;;
49416;SDS011;35290;39.550;8.786;2023-08-21T03:36:33;13.93;;;5.00;;
49416;SDS011;35290;39.550;8.786;2023-08-21T03:39:02;10.77;;;5.57;;
49416;SDS011;35290;39.550;8.786;2023-08-21T03:41:27;13.90;;;5.88;;
49416;SDS011;35290;39.550;8.786;2023-08-21T03:43:53;12.25;;;5.30;;
49416;SDS011;35290;39.550;8.786;2023-08-21T03:46:18;15.20;;;5.18;;
49416;SDS011;35290;39.550;8.786;2023-08-21T03:48:44;8.68;;;5.32;;
49416;SDS011;35290;39.550;8.786;2023-08-21T03:51:09;11.00;;;5.35;;
49416;SDS011;35290;39.550;8.786;2023-08-21T03:53:34;13.02;;;5.03;;
49416;SDS011;35290;39.550;8.786;2023-08-21T03:55:59;12.48;;;4.55;;
49416;SDS011;35290;39.550;8.786;2023-08-21T03:58:25;9.00;;;4.82;;
49416;SDS011;35290;39.550;8.786;2023-08-21T04:00:52;8.35;;;5.35;;
49416;SDS011;35290;39.550;8.786;2023-08-21T04:03:17;10.25;;;5.10;;
49416;SDS011;35290;39.550;8.786;2023-08-21T04:05:42;7.95;;;4.97;;
49416;SDS011;35290;39.550;8.786;2023-08-21T04:08:08;10.45;;;4.28;;
49416;SDS011;35290;39.550;8.786;2023-08-21T04:10:33;9.57;;;4.53;;
49416;SDS011;35290;39.550;8.786;2023-08-21T04:12:59;10.55;;;4.72;;
49416;SDS011;35290;39.550;8.786;2023-08-21T04:15:25;8.43;;;4.43;;
49416;SDS011;35290;39.550;8.786;2023-08-21T04:17:50;11.57;;;4.55;;
49416;SDS011;35290;39.550;8.786;2023-08-21T04:20:15;6.72;;;4.32;;
49416;SDS011;35290;39.550;8.786;2023-08-21T04:22:41;9.57;;;4.60;;
49416;SDS011;35290;39.550;8.786;2023-08-21T04:25:06;9.73;;;4.55;;
49416;SDS011;35290;39.550;8.786;2023-08-21T04:27:32;7.63;;;4.28;;
49416;SDS011;35290;39.550;8.786;2023-08-21T04:29:58;11.48;;;4.40;;
49416;SDS011;35290;39.550;8.786;2023-08-21T04:32:24;8.45;;;4.55;;
49416;SDS011;35290;39.550;8.786;2023-08-21T04:34:49;10.05;;;4.70;;
49416;SDS011;35290;39.550;8.786;2023-08-21T04:37:15;8.60;;;4.38;;
49416;SDS011;35290;39.550;8.786;2023-08-21T04:39:40;5.65;;;4.55;;
49416;SDS011;35290;39.550;8.786;2023-08-21T04:42:06;8.75;;;4.47;;
49416;SDS011;35290;39.550;8.786;2023-08-21T04:44:31;8.07;;;4.30;;
49416;SDS011;35290;39.550;8.786;2023-08-21T04:46:56;7.80;;;4.30;;
49416;SDS011;35290;39.550;8.786;2023-08-21T04:49:22;10.65;;;4.65;;
49416;SDS011;35290;39.550;8.786;2023-08-21T04:51:47;9.60;;;4.20;;
49416;SDS011;35290;39.550;8.786;2023-08-21T04:54:13;11.45;;;4.88;;
49416;SDS011;35290;39.550;8.786;2023-08-21T04:56:38;6.25;;;4.35;;
49416;SDS011;35290;39.550;8.786;2023-08-21T04:59:03;11.90;;;4.07;;
49416;SDS011;35290;39.550;8.786;2023-08-21T05:01:28;7.10;;;4.03;;
49416;SDS011;35290;39.550;8.786;2023-08-21T05:03:54;11.20;;;4.88;;
49416;SDS011;35290;39.550;8.786;2023-08-21T05:06:20;8.23;;;4.60;;
49416;SDS011;35290;39.550;8.786;2023-08-21T05:08:45;11.70;;;4.60;;
49416;SDS011;35290;39.550;8.786;2023-08-21T05:11:10;7.65;;;3.97;;
49416;SDS011;35290;39.550;8.786;2023-08-21T05:13:36;8.50;;;4.05;;
49416;SDS011;35290;39.550;8.786;2023-08-21T05:16:01;9.18;;;4.40;;
49416;SDS011;35290;39.550;8.786;2023-08-21T05:18:26;7.85;;;4.20;;
49416;SDS011;35290;39.550;8.786;2023-08-21T05:20:54;12.27;;;4.50;;
49416;SDS011;35290;39.550;8.786;2023-08-21T05:23:19;12.65;;;4.70;;
49416;SDS011;35290;39.550;8.786;2023-08-21T05:25:48;13.63;;;4.47;;
49416;SDS011;35290;39.550;8.786;2023-08-21T05:28:13;10.55;;;4.40;;
49416;SDS011;35290;39.550;8.786;2023-08-21T05:30:39;16.60;;;4.57;;
49416;SDS011;35290;39.550;8.786;2023-08-21T05:33:04;9.50;;;4.32;;
49416;SDS011;35290;39.550;8.786;2023-08-21T05:35:33;10.70;;;4.57;;
49416;SDS011;35290;39.550;8.786;2023-08-21T05:37:59;13.18;;;4.90;;
49416;SDS011;35290;39.550;8.786;2023-08-21T05:40:24;11.95;;;5.40;;
49416;SDS011;35290;39.550;8.786;2023-08-21T05:42:49;10.55;;;5.30;;
49416;SDS011;35290;39.550;8.786;2023-08-21T05:45:15;11.32;;;5.60;;
49416;SDS011;35290;39.550;8.786;2023-08-21T05:47:40;9.82;;;5.70;;
49416;SDS011;35290;39.550;8.786;2023-08-21T05:50:05;12.05;;;5.38;;
49416;SDS011;35290;39.550;8.786;2023-08-21T05:52:31;10.52;;;5.07;;
49416;SDS011;35290;39.550;8.786;2023-08-21T05:54:56;13.27;;;5.10;;
49416;SDS011;35290;39.550;8.786;2023-08-21T05:57:21;10.80;;;4.57;;
49416;SDS011;35290;39.550;8.786;2023-08-21T05:59:47;12.95;;;4.63;;
49416;SDS011;35290;39.550;8.786;2023-08-21T06:02:12;12.15;;;4.13;;
49416;SDS011;35290;39.550;8.786;2023-08-21T06:04:39;11.45;;;4.18;;
49416;SDS011;35290;39.550;8.786;2023-08-21T06:07:05;11.35;;;4.65;;
49416;SDS011;35290;39.550;8.786;2023-08-21T06:09:30;7.68;;;4.00;;
49416;SDS011;35290;39.550;8.786;2023-08-21T06:11:58;8.50;;;4.90;;
49416;SDS011;35290;39.550;8.786;2023-08-21T06:14:25;10.55;;;4.28;;
49416;SDS011;35290;39.550;8.786;2023-08-21T06:16:57;13.65;;;4.10;;
49416;SDS011;35290;39.550;8.786;2023-08-21T06:19:22;8.80;;;4.13;;
49416;SDS011;35290;39.550;8.786;2023-08-21T06:21:47;11.07;;;3.92;;
49416;SDS011;35290;39.550;8.786;2023-08-21T06:24:12;9.67;;;3.93;;
49416;SDS011;35290;39.550;8.786;2023-08-21T06:26:38;9.43;;;3.50;;
49416;SDS011;35290;39.550;8.786;2023-08-21T06:29:03;13.52;;;3.65;;
49416;SDS011;35290;39.550;8.786;2023-08-21T06:31:28;11.38;;;3.70;;
49416;SDS011;35290;39.550;8.786;2023-08-21T06:33:54;8.63;;;3.60;;
49416;SDS011;35290;39.550;8.786;2023-08-21T06:36:19;8.10;;;3.93;;
49416;SDS011;35290;39.550;8.786;2023-08-21T06:38:44;9.37;;;3.47;;
49416;SDS011;35290;39.550;8.786;2023-08-21T06:41:09;10.45;;;3.50;;
49416;SDS011;35290;39.550;8.786;2023-08-21T06:43:35;8.90;;;3.20;;
49416;SDS011;35290;39.550;8.786;2023-08-21T06:46:01;7.35;;;3.40;;
49416;SDS011;35290;39.550;8.786;2023-08-21T06:48:26;9.10;;;3.30;;
49416;SDS011;35290;39.550;8.786;2023-08-21T06:50:51;6.80;;;3.15;;
49416;SDS011;35290;39.550;8.786;2023-08-21T06:53:17;12.37;;;3.73;;
49416;SDS011;35290;39.550;8.786;2023-08-21T06:55:44;10.80;;;3.50;;
49416;SDS011;35290;39.550;8.786;2023-08-21T06:58:09;11.30;;;4.13;;
49416;SDS011;35290;39.550;8.786;2023-08-21T07:00:34;7.82;;;3.50;;
49416;SDS011;35290;39.550;8.786;2023-08-21T07:03:00;8.40;;;3.67;;
49416;SDS011;35290;39.550;8.786;2023-08-21T07:05:25;10.68;;;3.72;;
49416;SDS011;35290;39.550;8.786;2023-08-21T07:07:50;9.18;;;3.70;;
49416;SDS011;35290;39.550;8.786;2023-08-21T07:10:16;8.80;;;4.28;;
49416;SDS011;35290;39.550;8.786;2023-08-21T07:12:41;7.72;;;3.70;;
49416;SDS011;35290;39.550;8.786;2023-08-21T07:15:07;10.35;;;3.78;;
49416;SDS011;35290;39.550;8.786;2023-08-21T07:17:32;8.43;;;3.90;;
49416;SDS011;35290;39.550;8.786;2023-08-21T07:19:57;7.73;;;3.60;;
49416;SDS011;35290;39.550;8.786;2023-08-21T07:22:23;10.57;;;4.00;;
49416;SDS011;35290;39.550;8.786;2023-08-21T07:24:48;7.70;;;3.58;;
49416;SDS011;35290;39.550;8.786;2023-08-21T07:27:13;7.97;;;3.83;;
49416;SDS011;35290;39.550;8.786;2023-08-21T07:29:38;10.77;;;3.67;;
49416;SDS011;35290;39.550;8.786;2023-08-21T07:32:04;9.20;;;4.18;;
49416;SDS011;35290;39.550;8.786;2023-08-21T07:34:29;12.57;;;3.85;;
49416;SDS011;35290;39.550;8.786;2023-08-21T07:36:55;12.00;;;4.25;;
49416;SDS011;35290;39.550;8.786;2023-08-21T07:39:20;9.30;;;4.65;;
49416;SDS011;35290;39.550;8.786;2023-08-21T07:41:45;7.75;;;3.72;;
49416;SDS011;35290;39.550;8.786;2023-08-21T07:44:10;11.82;;;3.95;;
49416;SDS011;35290;39.550;8.786;2023-08-21T07:46:36;8.40;;;3.90;;
49416;SDS011;35290;39.550;8.786;2023-08-21T07:49:01;13.13;;;3.97;;
49416;SDS011;35290;39.550;8.786;2023-08-21T07:51:26;5.18;;;3.25;;
49416;SDS011;35290;39.550;8.786;2023-08-21T07:53:52;8.68;;;3.60;;
49416;SDS011;35290;39.550;8.786;2023-08-21T07:56:17;11.70;;;3.70;;
49416;SDS011;35290;39.550;8.786;2023-08-21T07:58:42;10.13;;;3.50;;
49416;SDS011;35290;39.550;8.786;2023-08-21T08:01:08;8.35;;;3.70;;
49416;SDS011;35290;39.550;8.786;2023-08-21T08:03:33;5.03;;;3.50;;
49416;SDS011;35290;39.550;8.786;2023-08-21T08:05:58;5.03;;;3.13;;
49416;SDS011;35290;39.550;8.786;2023-08-21T08:08:24;9.05;;;3.22;;
49416;SDS011;35290;39.550;8.786;2023-08-21T08:10:50;6.95;;;3.72;;
49416;SDS011;35290;39.550;8.786;2023-08-21T08:13:15;10.77;;;3.72;;
49416;SDS011;35290;39.550;8.786;2023-08-21T08:15:41;5.55;;;3.60;;
49416;SDS011;35290;39.550;8.786;2023-08-21T08:18:10;5.60;;;3.33;;
49416;SDS011;35290;39.550;8.786;2023-08-21T08:20:35;6.95;;;3.65;;
49416;SDS011;35290;39.550;8.786;2023-08-21T08:23:01;9.30;;;3.70;;
49416;SDS011;35290;39.550;8.786;2023-08-21T08:25:26;4.90;;;3.40;;
49416;SDS011;35290;39.550;8.786;2023-08-21T08:27:51;5.97;;;3.55;;
49416;SDS011;35290;39.550;8.786;2023-08-21T08:30:17;8.23;;;4.10;;
49416;SDS011;35290;39.550;8.786;2023-08-21T08:32:42;7.13;;;3.53;;
49416;SDS011;35290;39.550;8.786;2023-08-21T08:35:10;7.07;;;4.00;;
49416;SDS011;35290;39.550;8.786;2023-08-21T08:37:35;5.65;;;3.58;;
49416;SDS011;35290;39.550;8.786;2023-08-21T08:40:01;4.72;;;3.60;;
49416;SDS011;35290;39.550;8.786;2023-08-21T08:42:26;8.32;;;3.70;;
49416;SDS011;35290;39.550;8.786;2023-08-21T08:44:51;10.73;;;3.90;;
49416;SDS011;35290;39.550;8.786;2023-08-21T08:47:19;4.35;;;3.47;;
49416;SDS011;35290;39.550;8.786;2023-08-21T08:49:46;7.68;;;3.80;;
49416;SDS011;35290;39.550;8.786;2023-08-21T08:52:12;6.60;;;3.60;;
49416;SDS011;35290;39.550;8.786;2023-08-21T08:54:38;7.68;;;3.88;;
49416;SDS011;35290;39.550;8.786;2023-08-21T08:57:03;7.35;;;3.75;;
49416;SDS011;35290;39.550;8.786;2023-08-21T08:59:32;6.38;;;3.72;;
49416;SDS011;35290;39.550;8.786;2023-08-21T09:01:58;5.93;;;3.88;;
49416;SDS011;35290;39.550;8.786;2023-08-21T09:04:23;6.68;;;3.80;;
49416;SDS011;35290;39.550;8.786;2023-08-21T09:06:48;7.47;;;3.88;;
49416;SDS011;35290;39.550;8.786;2023-08-21T09:09:14;4.68;;;3.78;;
49416;SDS011;35290;39.550;8.786;2023-08-21T09:11:43;4.63;;;3.65;;
49416;SDS011;35290;39.550;8.786;2023-08-21T09:14:09;5.18;;;3.60;;
49416;SDS011;35290;39.550;8.786;2023-08-21T09:16:35;5.40;;;4.00;;
49416;SDS011;35290;39.550;8.786;2023-08-21T09:19:00;4.88;;;3.63;;
49416;SDS011;35290;39.550;8.786;2023-08-21T09:21:25;6.20;;;4.13;;
49416;SDS011;35290;39.550;8.786;2023-08-21T09:24:01;5.40;;;3.38;;
49416;SDS011;35290;39.550;8.786;2023-08-21T09:26:30;4.35;;;3.70;;
49416;SDS011;35290;39.550;8.786;2023-08-21T09:28:57;8.65;;;4.35;;
49416;SDS011;35290;39.550;8.786;2023-08-21T09:31:33;5.43;;;3.97;;
49416;SDS011;35290;39.550;8.786;2023-08-21T09:33:59;7.78;;;3.95;;
49416;SDS011;35290;39.550;8.786;2023-08-21T09:36:25;7.32;;;4.03;;
49416;SDS011;35290;39.550;8.786;2023-08-21T09:38:51;6.05;;;4.32;;
49416;SDS011;35290;39.550;8.786;2023-08-21T09:41:20;9.40;;;4.85;;
49416;SDS011;35290;39.550;8.786;2023-08-21T09:43:45;9.05;;;4.40;;
49416;SDS011;35290;39.550;8.786;2023-08-21T09:46:32;9.55;;;4.35;;
49416;SDS011;35290;39.550;8.786;2023-08-21T09:48:57;8.40;;;4.50;;
49416;SDS011;35290;39.550;8.786;2023-08-21T09:51:22;7.25;;;4.60;;
49416;SDS011;35290;39.550;8.786;2023-08-21T09:53:48;7.72;;;4.80;;
49416;SDS011;35290;39.550;8.786;2023-08-21T09:56:14;7.20;;;4.53;;
49416;SDS011;35290;39.550;8.786;2023-08-21T09:58:40;4.72;;;4.22;;
49416;SDS011;35290;39.550;8.786;2023-08-21T10:01:06;5.78;;;4.22;;
49416;SDS011;35290;39.550;8.786;2023-08-21T10:03:37;10.90;;;5.20;;
49416;SDS011;35290;39.550;8.786;2023-08-21T10:06:03;5.22;;;4.32;;
49416;SDS011;35290;39.550;8.786;2023-08-21T10:08:31;5.68;;;4.20;;
49416;SDS011;35290;39.550;8.786;2023-08-21T10:10:56;6.28;;;4.72;;
49416;SDS011;35290;39.550;8.786;2023-08-21T10:13:22;5.00;;;4.47;;
49416;SDS011;35290;39.550;8.786;2023-08-21T10:15:47;7.00;;;4.88;;
49416;SDS011;35290;39.550;8.786;2023-08-21T10:18:23;6.38;;;4.68;;
49416;SDS011;35290;39.550;8.786;2023-08-21T10:20:48;7.55;;;4.75;;
49416;SDS011;35290;39.550;8.786;2023-08-21T10:23:24;11.32;;;4.68;;
49416;SDS011;35290;39.550;8.786;2023-08-21T10:25:50;7.75;;;5.00;;
49416;SDS011;35290;39.550;8.786;2023-08-21T10:28:19;7.80;;;4.57;;
49416;SDS011;35290;39.550;8.786;2023-08-21T10:30:44;8.33;;;4.47;;
49416;SDS011;35290;39.550;8.786;2023-08-21T10:33:09;7.05;;;4.85;;
49416;SDS011;35290;39.550;8.786;2023-08-21T10:35:35;7.17;;;5.10;;
49416;SDS011;35290;39.550;8.786;2023-08-21T10:38:09;9.50;;;5.53;;
49416;SDS011;35290;39.550;8.786;2023-08-21T10:40:35;7.03;;;4.95;;
49416;SDS011;35290;39.550;8.786;2023-08-21T10:43:01;8.35;;;4.97;;
49416;SDS011;35290;39.550;8.786;2023-08-21T10:45:27;8.63;;;5.05;;
49416;SDS011;35290;39.550;8.786;2023-08-21T10:47:52;10.82;;;5.60;;
49416;SDS011;35290;39.550;8.786;2023-08-21T10:50:18;7.63;;;5.55;;
49416;SDS011;35290;39.550;8.786;2023-08-21T10:52:43;6.47;;;5.00;;
49416;SDS011;35290;39.550;8.786;2023-08-21T10:55:13;9.30;;;5.18;;
49416;SDS011;35290;39.550;8.786;2023-08-21T10:57:38;7.38;;;5.38;;
49416;SDS011;35290;39.550;8.786;2023-08-21T11:02:35;9.40;;;6.13;;
49416;SDS011;35290;39.550;8.786;2023-08-21T11:05:00;7.88;;;5.68;;
49416;SDS011;35290;39.550;8.786;2023-08-21T11:07:26;11.05;;;6.35;;
49416;SDS011;35290;39.550;8.786;2023-08-21T11:09:52;7.65;;;5.70;;
49416;SDS011;35290;39.550;8.786;2023-08-21T11:12:18;6.30;;;5.65;;
49416;SDS011;35290;39.550;8.786;2023-08-21T11:14:44;6.40;;;5.22;;
49416;SDS011;35290;39.550;8.786;2023-08-21T11:17:09;7.85;;;5.78;;
49416;SDS011;35290;39.550;8.786;2023-08-21T11:19:35;6.15;;;5.53;;
49416;SDS011;35290;39.550;8.786;2023-08-21T11:22:00;6.15;;;5.40;;
49416;SDS011;35290;39.550;8.786;2023-08-21T11:24:30;8.23;;;5.53;;
49416;SDS011;35290;39.550;8.786;2023-08-21T11:26:55;5.97;;;5.38;;
49416;SDS011;35290;39.550;8.786;2023-08-21T11:29:21;6.57;;;5.10;;
49416;SDS011;35290;39.550;8.786;2023-08-21T11:31:46;6.88;;;5.18;;
49416;SDS011;35290;39.550;8.786;2023-08-21T11:34:18;9.77;;;5.22;;
49416;SDS011;35290;39.550;8.786;2023-08-21T11:36:43;7.68;;;5.57;;
49416;SDS011;35290;39.550;8.786;2023-08-21T11:39:08;8.20;;;5.63;;
49416;SDS011;35290;39.550;8.786;2023-08-21T11:41:52;9.93;;;5.37;;
49416;SDS011;35290;39.550;8.786;2023-08-21T11:44:17;5.93;;;5.10;;
49416;SDS011;35290;39.550;8.786;2023-08-21T11:46:42;9.02;;;5.60;;
49416;SDS011;35290;39.550;8.786;2023-08-21T11:49:08;7.70;;;5.68;;
49416;SDS011;35290;39.550;8.786;2023-08-21T11:51:39;6.40;;;5.60;;
49416;SDS011;35290;39.550;8.786;2023-08-21T11:54:05;9.77;;;6.13;;
49416;SDS011;35290;39.550;8.786;2023-08-21T11:56:31;6.85;;;5.60;;
49416;SDS011;35290;39.550;8.786;2023-08-21T11:58:56;7.55;;;5.70;;
49416;SDS011;35290;39.550;8.786;2023-08-21T12:01:24;6.53;;;5.63;;
49416;SDS011;35290;39.550;8.786;2023-08-21T12:03:49;13.43;;;5.13;;
49416;SDS011;35290;39.550;8.786;2023-08-21T12:06:19;10.57;;;4.85;;
49416;SDS011;35290;39.550;8.786;2023-08-21T12:08:45;7.13;;;5.35;;
49416;SDS011;35290;39.550;8.786;2023-08-21T12:11:10;8.55;;;4.80;;
49416;SDS011;35290;39.550;8.786;2023-08-21T12:13:36;7.30;;;5.05;;
49416;SDS011;35290;39.550;8.786;2023-08-21T12:16:02;8.85;;;5.03;;
49416;SDS011;35290;39.550;8.786;2023-08-21T12:18:27;7.53;;;5.32;;
49416;SDS011;35290;39.550;8.786;2023-08-21T12:20:52;7.00;;;4.95;;
49416;SDS011;35290;39.550;8.786;2023-08-21T12:23:18;7.55;;;5.10;;
49416;SDS011;35290;39.550;8.786;2023-08-21T12:25:43;6.97;;;5.30;;
49416;SDS011;35290;39.550;8.786;2023-08-21T12:28:09;7.13;;;5.10;;
49416;SDS011;35290;39.550;8.786;2023-08-21T12:30:35;10.20;;;5.60;;
49416;SDS011;35290;39.550;8.786;2023-08-21T12:33:00;8.47;;;5.10;;
49416;SDS011;35290;39.550;8.786;2023-08-21T12:35:25;6.55;;;5.40;;
49416;SDS011;35290;39.550;8.786;2023-08-21T12:37:53;7.40;;;5.38;;
49416;SDS011;35290;39.550;8.786;2023-08-21T12:40:19;8.00;;;5.22;;
49416;SDS011;35290;39.550;8.786;2023-08-21T12:42:44;12.85;;;6.00;;
49416;SDS011;35290;39.550;8.786;2023-08-21T12:45:10;7.15;;;5.55;;
49416;SDS011;35290;39.550;8.786;2023-08-21T12:47:36;10.15;;;5.82;;
49416;SDS011;35290;39.550;8.786;2023-08-21T12:50:01;6.63;;;5.15;;
49416;SDS011;35290;39.550;8.786;2023-08-21T12:52:28;8.77;;;6.05;;
49416;SDS011;35290;39.550;8.786;2023-08-21T12:54:53;7.03;;;5.38;;
49416;SDS011;35290;39.550;8.786;2023-08-21T12:57:19;10.87;;;5.73;;
49416;SDS011;35290;39.550;8.786;2023-08-21T12:59:44;9.37;;;5.57;;
49416;SDS011;35290;39.550;8.786;2023-08-21T13:02:09;5.65;;;4.97;;
49416;SDS011;35290;39.550;8.786;2023-08-21T13:04:35;7.82;;;4.90;;
49416;SDS011;35290;39.550;8.786;2023-08-21T13:07:00;6.60;;;4.57;;
49416;SDS011;35290;39.550;8.786;2023-08-21T13:09:26;7.18;;;5.35;;
49416;SDS011;35290;39.550;8.786;2023-08-21T13:11:53;5.78;;;4.72;;
49416;SDS011;35290;39.550;8.786;2023-08-21T13:14:18;7.50;;;5.10;;
49416;SDS011;35290;39.550;8.786;2023-08-21T13:16:46;8.73;;;4.55;;
49416;SDS011;35290;39.550;8.786;2023-08-21T13:19:11;6.30;;;4.63;;
49416;SDS011;35290;39.550;8.786;2023-08-21T13:21:36;7.68;;;4.65;;
49416;SDS011;35290;39.550;8.786;2023-08-21T13:24:02;8.68;;;5.10;;
49416;SDS011;35290;39.550;8.786;2023-08-21T13:26:27;9.40;;;5.03;;
49416;SDS011;35290;39.550;8.786;2023-08-21T13:28:54;9.02;;;5.50;;
49416;SDS011;35290;39.550;8.786;2023-08-21T13:31:20;7.60;;;5.05;;
49416;SDS011;35290;39.550;8.786;2023-08-21T13:33:45;6.33;;;5.13;;
49416;SDS011;35290;39.550;8.786;2023-08-21T13:36:11;8.02;;;5.15;;
49416;SDS011;35290;39.550;8.786;2023-08-21T13:38:36;7.03;;;4.97;;
49416;SDS011;35290;39.550;8.786;2023-08-21T13:41:01;9.67;;;4.97;;
49416;SDS011;35290;39.550;8.786;2023-08-21T13:43:27;6.53;;;4.68;;
49416;SDS011;35290;39.550;8.786;2023-08-21T13:45:52;6.90;;;5.00;;
49416;SDS011;35290;39.550;8.786;2023-08-21T13:48:17;8.83;;;5.20;;
49416;SDS011;35290;39.550;8.786;2023-08-21T13:50:43;7.70;;;5.10;;
49416;SDS011;35290;39.550;8.786;2023-08-21T13:53:08;9.20;;;5.60;;
49416;SDS011;35290;39.550;8.786;2023-08-21T13:55:33;8.80;;;5.28;;
49416;SDS011;35290;39.550;8.786;2023-08-21T13:57:59;10.63;;;5.10;;
49416;SDS011;35290;39.550;8.786;2023-08-21T14:00:24;7.15;;;5.35;;
49416;SDS011;35290;39.550;8.786;2023-08-21T14:02:49;8.15;;;4.85;;
49416;SDS011;35290;39.550;8.786;2023-08-21T14:05:15;5.68;;;5.07;;
49416;SDS011;35290;39.550;8.786;2023-08-21T14:07:40;7.13;;;5.28;;
49416;SDS011;35290;39.550;8.786;2023-08-21T14:10:06;7.95;;;4.97;;
49416;SDS011;35290;39.550;8.786;2023-08-21T14:12:31;6.78;;;5.15;;
49416;SDS011;35290;39.550;8.786;2023-08-21T14:15:00;6.72;;;5.50;;
49416;SDS011;35290;39.550;8.786;2023-08-21T14:17:25;9.38;;;5.57;;
49416;SDS011;35290;39.550;8.786;2023-08-21T14:19:50;13.05;;;5.68;;
49416;SDS011;35290;39.550;8.786;2023-08-21T14:22:16;7.47;;;5.40;;
49416;SDS011;35290;39.550;8.786;2023-08-21T14:24:41;10.10;;;5.90;;
49416;SDS011;35290;39.550;8.786;2023-08-21T14:27:06;11.60;;;5.38;;
49416;SDS011;35290;39.550;8.786;2023-08-21T14:29:31;9.27;;;5.70;;
49416;SDS011;35290;39.550;8.786;2023-08-21T14:31:58;9.05;;;5.97;;
49416;SDS011;35290;39.550;8.786;2023-08-21T14:34:23;7.93;;;5.32;;
49416;SDS011;35290;39.550;8.786;2023-08-21T14:36:48;10.75;;;5.68;;
49416;SDS011;35290;39.550;8.786;2023-08-21T14:39:14;8.07;;;5.85;;
49416;SDS011;35290;39.550;8.786;2023-08-21T14:41:42;12.68;;;5.93;;